sensor_id;sensor_type;location;lat;lon;timestamp;P1;durP1;ratioP1;P2;durP2;ratioP2
317;SDS011;146;53.448;10.228;2023-03-01T00:02:06;10.60;;;8.73;;
317;SDS011;146;53.448;10.228;2023-03-01T00:04:33;11.52;;;9.65;;
317;SDS011;146;53.448;10.228;2023-03-01T00:07:03;10.15;;;9.15;;
317;SDS011;146;53.448;10.228;2023-03-01T00:09:35;9.38;;;8.18;;
317;SDS011;146;53.448;10.228;2023-03-01T00:12:08;9.60;;;8.75;;
317;SDS011;146;53.448;10.228;2023-03-01T00:14:36;11.02;;;8.50;;
317;SDS011;146;53.448;10.228;2023-03-01T00:17:05;10.57;;;7.93;;
317;SDS011;146;53.448;10.228;2023-03-01T00:19:32;10.18;;;8.15;;
317;SDS011;146;53.448;10.228;2023-03-01T00:21:59;11.50;;;8.20;;
317;SDS011;146;53.448;10.228;2023-03-01T00:24:29;9.32;;;8.27;;
317;SDS011;146;53.448;10.228;2023-03-01T00:26:57;9.13;;;8.23;;
317;SDS011;146;53.448;10.228;2023-03-01T00:29:24;9.48;;;8.05;;
317;SDS011;146;53.448;10.228;2023-03-01T00:31:51;10.93;;;9.20;;
317;SDS011;146;53.448;10.228;2023-03-01T00:34:21;9.55;;;8.65;;
317;SDS011;146;53.448;10.228;2023-03-01T00:36:53;9.68;;;7.85;;
317;SDS011;146;53.448;10.228;2023-03-01T00:39:23;8.43;;;7.63;;
317;SDS011;146;53.448;10.228;2023-03-01T00:42:03;7.75;;;7.15;;
317;SDS011;146;53.448;10.228;2023-03-01T00:44:33;10.65;;;8.23;;
317;SDS011;146;53.448;10.228;2023-03-01T00:47:00;9.63;;;8.70;;
317;SDS011;146;53.448;10.228;2023-03-01T00:49:26;11.27;;;8.57;;
317;SDS011;146;53.448;10.228;2023-03-01T00:51:53;11.07;;;8.98;;
317;SDS011;146;53.448;10.228;2023-03-01T00:54:20;10.40;;;9.38;;
317;SDS011;146;53.448;10.228;2023-03-01T00:56:50;10.10;;;8.90;;
317;SDS011;146;53.448;10.228;2023-03-01T00:59:21;10.98;;;8.68;;
317;SDS011;146;53.448;10.228;2023-03-01T01:01:47;12.27;;;9.25;;
317;SDS011;146;53.448;10.228;2023-03-01T01:04:14;13.07;;;8.10;;
317;SDS011;146;53.448;10.228;2023-03-01T01:06:45;9.35;;;8.40;;
317;SDS011;146;53.448;10.228;2023-03-01T01:09:15;9.05;;;8.25;;
317;SDS011;146;53.448;10.228;2023-03-01T01:11:49;9.27;;;8.35;;
317;SDS011;146;53.448;10.228;2023-03-01T01:14:21;7.80;;;7.10;;
317;SDS011;146;53.448;10.228;2023-03-01T01:16:48;6.65;;;5.85;;
317;SDS011;146;53.448;10.228;2023-03-01T01:19:17;6.90;;;6.20;;
317;SDS011;146;53.448;10.228;2023-03-01T01:21:44;5.38;;;4.88;;
317;SDS011;146;53.448;10.228;2023-03-01T01:24:13;7.00;;;5.18;;
317;SDS011;146;53.448;10.228;2023-03-01T01:26:49;6.28;;;5.72;;
317;SDS011;146;53.448;10.228;2023-03-01T01:29:19;6.75;;;5.35;;
317;SDS011;146;53.448;10.228;2023-03-01T01:31:47;6.32;;;5.72;;
317;SDS011;146;53.448;10.228;2023-03-01T01:34:17;6.00;;;5.50;;
317;SDS011;146;53.448;10.228;2023-03-01T01:36:49;6.10;;;5.45;;
317;SDS011;146;53.448;10.228;2023-03-01T01:39:18;5.95;;;5.43;;
317;SDS011;146;53.448;10.228;2023-03-01T01:41:48;7.88;;;5.47;;
317;SDS011;146;53.448;10.228;2023-03-01T01:44:16;5.82;;;5.22;;
317;SDS011;146;53.448;10.228;2023-03-01T01:46:50;6.55;;;5.75;;
317;SDS011;146;53.448;10.228;2023-03-01T01:49:24;7.60;;;5.75;;
317;SDS011;146;53.448;10.228;2023-03-01T01:51:56;6.53;;;4.70;;
317;SDS011;146;53.448;10.228;2023-03-01T01:54:35;6.75;;;5.40;;
317;SDS011;146;53.448;10.228;2023-03-01T01:57:10;6.30;;;5.80;;
317;SDS011;146;53.448;10.228;2023-03-01T01:59:40;6.50;;;5.75;;
317;SDS011;146;53.448;10.228;2023-03-01T02:02:14;6.55;;;5.68;;
317;SDS011;146;53.448;10.228;2023-03-01T02:04:42;6.88;;;6.03;;
317;SDS011;146;53.448;10.228;2023-03-01T02:07:09;5.70;;;5.20;;
317;SDS011;146;53.448;10.228;2023-03-01T02:09:48;7.20;;;5.97;;
317;SDS011;146;53.448;10.228;2023-03-01T02:12:23;5.80;;;5.20;;
317;SDS011;146;53.448;10.228;2023-03-01T02:14:51;6.63;;;6.03;;
317;SDS011;146;53.448;10.228;2023-03-01T02:17:19;6.78;;;5.97;;
317;SDS011;146;53.448;10.228;2023-03-01T02:19:55;6.05;;;5.45;;
317;SDS011;146;53.448;10.228;2023-03-01T02:22:32;7.50;;;6.15;;
317;SDS011;146;53.448;10.228;2023-03-01T02:25:03;6.75;;;6.03;;
317;SDS011;146;53.448;10.228;2023-03-01T02:27:38;5.82;;;5.32;;
317;SDS011;146;53.448;10.228;2023-03-01T02:30:17;5.53;;;5.03;;
317;SDS011;146;53.448;10.228;2023-03-01T02:32:54;8.40;;;6.55;;
317;SDS011;146;53.448;10.228;2023-03-01T02:35:27;6.70;;;6.10;;
317;SDS011;146;53.448;10.228;2023-03-01T02:37:57;6.35;;;5.82;;
317;SDS011;146;53.448;10.228;2023-03-01T02:40:26;6.53;;;5.93;;
317;SDS011;146;53.448;10.228;2023-03-01T02:42:56;9.45;;;6.70;;
317;SDS011;146;53.448;10.228;2023-03-01T02:45:29;6.85;;;6.15;;
317;SDS011;146;53.448;10.228;2023-03-01T02:47:56;8.07;;;7.25;;
317;SDS011;146;53.448;10.228;2023-03-01T02:53:32;7.10;;;5.65;;
317;SDS011;146;53.448;10.228;2023-03-01T02:56:14;6.65;;;6.05;;
317;SDS011;146;53.448;10.228;2023-03-01T02:58:41;7.00;;;6.30;;
317;SDS011;146;53.448;10.228;2023-03-01T03:01:14;7.00;;;5.90;;
317;SDS011;146;53.448;10.228;2023-03-01T03:03:41;7.05;;;6.43;;
317;SDS011;146;53.448;10.228;2023-03-01T03:06:11;6.38;;;5.78;;
317;SDS011;146;53.448;10.228;2023-03-01T03:08:41;6.35;;;5.82;;
317;SDS011;146;53.448;10.228;2023-03-01T03:11:15;6.80;;;6.20;;
317;SDS011;146;53.448;10.228;2023-03-01T03:13:48;6.28;;;5.78;;
317;SDS011;146;53.448;10.228;2023-03-01T03:16:19;6.22;;;5.72;;
317;SDS011;146;53.448;10.228;2023-03-01T03:18:47;6.63;;;5.55;;
317;SDS011;146;53.448;10.228;2023-03-01T03:21:15;7.40;;;6.80;;
317;SDS011;146;53.448;10.228;2023-03-01T03:23:42;8.10;;;7.40;;
317;SDS011;146;53.448;10.228;2023-03-01T03:26:15;7.97;;;7.18;;
317;SDS011;146;53.448;10.228;2023-03-01T03:28:42;7.60;;;6.85;;
317;SDS011;146;53.448;10.228;2023-03-01T03:31:09;9.15;;;7.35;;
317;SDS011;146;53.448;10.228;2023-03-01T03:33:37;7.93;;;7.22;;
317;SDS011;146;53.448;10.228;2023-03-01T03:36:04;6.72;;;6.00;;
317;SDS011;146;53.448;10.228;2023-03-01T03:38:31;7.30;;;6.40;;
317;SDS011;146;53.448;10.228;2023-03-01T03:41:02;6.13;;;5.63;;
317;SDS011;146;53.448;10.228;2023-03-01T03:43:30;6.72;;;6.13;;
317;SDS011;146;53.448;10.228;2023-03-01T03:46:05;7.43;;;6.72;;
317;SDS011;146;53.448;10.228;2023-03-01T03:48:33;6.30;;;5.65;;
317;SDS011;146;53.448;10.228;2023-03-01T03:51:02;8.13;;;6.30;;
317;SDS011;146;53.448;10.228;2023-03-01T03:53:30;6.90;;;6.20;;
317;SDS011;146;53.448;10.228;2023-03-01T03:55:57;5.47;;;4.97;;
317;SDS011;146;53.448;10.228;2023-03-01T03:58:24;5.67;;;5.10;;
317;SDS011;146;53.448;10.228;2023-03-01T04:00:52;9.00;;;6.05;;
317;SDS011;146;53.448;10.228;2023-03-01T04:03:24;7.55;;;6.85;;
317;SDS011;146;53.448;10.228;2023-03-01T04:05:56;6.20;;;5.60;;
317;SDS011;146;53.448;10.228;2023-03-01T04:08:25;6.32;;;5.80;;
317;SDS011;146;53.448;10.228;2023-03-01T04:10:59;7.35;;;5.85;;
317;SDS011;146;53.448;10.228;2023-03-01T04:13:50;5.95;;;5.35;;
317;SDS011;146;53.448;10.228;2023-03-01T04:16:19;6.68;;;6.18;;
317;SDS011;146;53.448;10.228;2023-03-01T04:18:52;7.57;;;6.70;;
317;SDS011;146;53.448;10.228;2023-03-01T04:21:19;6.13;;;5.63;;
317;SDS011;146;53.448;10.228;2023-03-01T04:23:48;6.70;;;5.95;;
317;SDS011;146;53.448;10.228;2023-03-01T04:26:21;6.80;;;6.13;;
317;SDS011;146;53.448;10.228;2023-03-01T04:28:47;6.83;;;5.77;;
317;SDS011;146;53.448;10.228;2023-03-01T04:31:24;5.70;;;5.00;;
317;SDS011;146;53.448;10.228;2023-03-01T04:33:59;9.00;;;7.13;;
317;SDS011;146;53.448;10.228;2023-03-01T04:36:27;6.30;;;5.70;;
317;SDS011;146;53.448;10.228;2023-03-01T04:38:56;8.27;;;6.20;;
317;SDS011;146;53.448;10.228;2023-03-01T04:41:23;7.15;;;6.50;;
317;SDS011;146;53.448;10.228;2023-03-01T04:43:51;6.53;;;5.93;;
317;SDS011;146;53.448;10.228;2023-03-01T04:46:20;6.55;;;5.95;;
317;SDS011;146;53.448;10.228;2023-03-01T04:48:47;6.47;;;5.87;;
317;SDS011;146;53.448;10.228;2023-03-01T04:51:14;7.38;;;6.22;;
317;SDS011;146;53.448;10.228;2023-03-01T04:53:44;9.53;;;6.53;;
317;SDS011;146;53.448;10.228;2023-03-01T04:56:13;6.72;;;6.03;;
317;SDS011;146;53.448;10.228;2023-03-01T04:58:46;10.18;;;7.22;;
317;SDS011;146;53.448;10.228;2023-03-01T05:01:17;7.38;;;6.68;;
317;SDS011;146;53.448;10.228;2023-03-01T05:03:45;7.20;;;6.50;;
317;SDS011;146;53.448;10.228;2023-03-01T05:06:13;7.05;;;6.35;;
317;SDS011;146;53.448;10.228;2023-03-01T05:08:42;8.30;;;6.27;;
317;SDS011;146;53.448;10.228;2023-03-01T05:11:17;6.80;;;5.80;;
317;SDS011;146;53.448;10.228;2023-03-01T05:13:43;8.63;;;6.97;;
317;SDS011;146;53.448;10.228;2023-03-01T05:16:15;8.27;;;6.90;;
317;SDS011;146;53.448;10.228;2023-03-01T05:18:45;7.07;;;6.40;;
317;SDS011;146;53.448;10.228;2023-03-01T05:21:24;6.80;;;6.20;;
317;SDS011;146;53.448;10.228;2023-03-01T05:23:54;9.50;;;7.07;;
317;SDS011;146;53.448;10.228;2023-03-01T05:26:25;7.07;;;6.38;;
317;SDS011;146;53.448;10.228;2023-03-01T05:28:53;7.05;;;6.35;;
317;SDS011;146;53.448;10.228;2023-03-01T05:31:23;6.63;;;6.03;;
317;SDS011;146;53.448;10.228;2023-03-01T05:33:55;7.10;;;5.70;;
317;SDS011;146;53.448;10.228;2023-03-01T05:36:25;6.50;;;5.90;;
317;SDS011;146;53.448;10.228;2023-03-01T05:38:51;7.32;;;6.55;;
317;SDS011;146;53.448;10.228;2023-03-01T05:41:25;7.45;;;6.20;;
317;SDS011;146;53.448;10.228;2023-03-01T05:43:55;7.03;;;6.40;;
317;SDS011;146;53.448;10.228;2023-03-01T05:46:22;6.90;;;6.18;;
317;SDS011;146;53.448;10.228;2023-03-01T05:48:49;6.77;;;6.17;;
317;SDS011;146;53.448;10.228;2023-03-01T05:51:16;7.17;;;6.47;;
317;SDS011;146;53.448;10.228;2023-03-01T05:53:47;8.70;;;7.57;;
317;SDS011;146;53.448;10.228;2023-03-01T05:56:17;11.90;;;10.70;;
317;SDS011;146;53.448;10.228;2023-03-01T05:58:48;10.23;;;8.13;;
317;SDS011;146;53.448;10.228;2023-03-01T06:01:15;14.63;;;11.97;;
317;SDS011;146;53.448;10.228;2023-03-01T06:03:42;16.13;;;14.50;;
317;SDS011;146;53.448;10.228;2023-03-01T06:06:11;7.83;;;7.00;;
317;SDS011;146;53.448;10.228;2023-03-01T06:08:43;9.57;;;6.40;;
317;SDS011;146;53.448;10.228;2023-03-01T06:11:10;7.05;;;6.35;;
317;SDS011;146;53.448;10.228;2023-03-01T06:13:40;8.40;;;7.50;;
317;SDS011;146;53.448;10.228;2023-03-01T06:16:11;8.43;;;6.63;;
317;SDS011;146;53.448;10.228;2023-03-01T06:18:41;6.77;;;6.07;;
317;SDS011;146;53.448;10.228;2023-03-01T06:21:08;7.30;;;6.70;;
317;SDS011;146;53.448;10.228;2023-03-01T06:23:40;7.70;;;6.90;;
317;SDS011;146;53.448;10.228;2023-03-01T06:26:07;8.50;;;7.70;;
317;SDS011;146;53.448;10.228;2023-03-01T06:28:35;8.57;;;6.93;;
317;SDS011;146;53.448;10.228;2023-03-01T06:31:02;7.43;;;6.13;;
317;SDS011;146;53.448;10.228;2023-03-01T06:33:30;7.90;;;7.10;;
317;SDS011;146;53.448;10.228;2023-03-01T06:36:02;8.10;;;7.30;;
317;SDS011;146;53.448;10.228;2023-03-01T06:38:32;8.40;;;7.60;;
317;SDS011;146;53.448;10.228;2023-03-01T06:40:59;7.90;;;7.20;;
317;SDS011;146;53.448;10.228;2023-03-01T06:43:32;9.20;;;8.37;;
317;SDS011;146;53.448;10.228;2023-03-01T06:46:07;9.43;;;8.43;;
317;SDS011;146;53.448;10.228;2023-03-01T06:48:35;8.90;;;8.00;;
317;SDS011;146;53.448;10.228;2023-03-01T06:51:02;8.10;;;7.40;;
317;SDS011;146;53.448;10.228;2023-03-01T06:53:29;6.73;;;6.23;;
317;SDS011;146;53.448;10.228;2023-03-01T06:55:56;8.33;;;7.53;;
317;SDS011;146;53.448;10.228;2023-03-01T06:58:25;8.03;;;7.33;;
317;SDS011;146;53.448;10.228;2023-03-01T07:00:51;8.37;;;7.67;;
317;SDS011;146;53.448;10.228;2023-03-01T07:03:21;7.77;;;7.07;;
317;SDS011;146;53.448;10.228;2023-03-01T07:05:49;8.40;;;7.60;;
317;SDS011;146;53.448;10.228;2023-03-01T07:08:17;9.70;;;6.40;;
317;SDS011;146;53.448;10.228;2023-03-01T07:10:44;8.60;;;7.10;;
317;SDS011;146;53.448;10.228;2023-03-01T07:13:11;8.07;;;7.37;;
317;SDS011;146;53.448;10.228;2023-03-01T07:15:39;8.07;;;7.20;;
317;SDS011;146;53.448;10.228;2023-03-01T07:18:06;7.50;;;6.83;;
317;SDS011;146;53.448;10.228;2023-03-01T07:20:33;7.43;;;6.73;;
317;SDS011;146;53.448;10.228;2023-03-01T07:23:04;7.27;;;6.57;;
317;SDS011;146;53.448;10.228;2023-03-01T07:25:32;6.70;;;6.07;;
317;SDS011;146;53.448;10.228;2023-03-01T07:28:02;7.10;;;6.50;;
317;SDS011;146;53.448;10.228;2023-03-01T07:30:31;6.57;;;5.97;;
317;SDS011;146;53.448;10.228;2023-03-01T07:32:58;6.77;;;5.83;;
317;SDS011;146;53.448;10.228;2023-03-01T07:35:25;6.67;;;6.17;;
317;SDS011;146;53.448;10.228;2023-03-01T07:37:55;7.53;;;6.93;;
317;SDS011;146;53.448;10.228;2023-03-01T07:40:27;6.80;;;6.18;;
317;SDS011;146;53.448;10.228;2023-03-01T07:42:55;6.93;;;6.23;;
317;SDS011;146;53.448;10.228;2023-03-01T07:45:21;7.40;;;6.63;;
317;SDS011;146;53.448;10.228;2023-03-01T07:47:49;5.17;;;4.67;;
317;SDS011;146;53.448;10.228;2023-03-01T07:50:16;5.87;;;5.37;;
317;SDS011;146;53.448;10.228;2023-03-01T07:52:47;5.60;;;4.73;;
317;SDS011;146;53.448;10.228;2023-03-01T07:55:15;6.30;;;4.30;;
317;SDS011;146;53.448;10.228;2023-03-01T07:57:43;7.73;;;6.97;;
317;SDS011;146;53.448;10.228;2023-03-01T08:00:11;7.73;;;6.10;;
317;SDS011;146;53.448;10.228;2023-03-01T08:02:38;8.73;;;6.70;;
317;SDS011;146;53.448;10.228;2023-03-01T08:05:07;7.90;;;7.10;;
317;SDS011;146;53.448;10.228;2023-03-01T08:07:34;7.03;;;6.43;;
317;SDS011;146;53.448;10.228;2023-03-01T08:10:01;6.97;;;5.77;;
317;SDS011;146;53.448;10.228;2023-03-01T08:12:30;6.33;;;5.57;;
317;SDS011;146;53.448;10.228;2023-03-01T08:14:58;6.70;;;5.43;;
317;SDS011;146;53.448;10.228;2023-03-01T08:17:25;7.40;;;6.00;;
317;SDS011;146;53.448;10.228;2023-03-01T08:19:52;6.90;;;6.00;;
317;SDS011;146;53.448;10.228;2023-03-01T08:22:21;7.17;;;6.57;;
317;SDS011;146;53.448;10.228;2023-03-01T08:24:47;8.77;;;7.50;;
317;SDS011;146;53.448;10.228;2023-03-01T08:27:14;9.80;;;6.30;;
317;SDS011;146;53.448;10.228;2023-03-01T08:29:47;6.43;;;5.83;;
317;SDS011;146;53.448;10.228;2023-03-01T08:32:17;6.90;;;5.77;;
317;SDS011;146;53.448;10.228;2023-03-01T08:34:45;10.67;;;5.70;;
317;SDS011;146;53.448;10.228;2023-03-01T08:37:12;7.00;;;6.10;;
317;SDS011;146;53.448;10.228;2023-03-01T08:39:42;7.70;;;5.93;;
317;SDS011;146;53.448;10.228;2023-03-01T08:42:09;6.77;;;6.10;;
317;SDS011;146;53.448;10.228;2023-03-01T08:44:35;8.03;;;7.23;;
317;SDS011;146;53.448;10.228;2023-03-01T08:47:05;10.80;;;7.87;;
317;SDS011;146;53.448;10.228;2023-03-01T08:49:36;7.10;;;6.30;;
317;SDS011;146;53.448;10.228;2023-03-01T08:52:06;7.70;;;5.37;;
317;SDS011;146;53.448;10.228;2023-03-01T08:54:32;8.00;;;6.77;;
317;SDS011;146;53.448;10.228;2023-03-01T08:57:00;7.77;;;6.87;;
317;SDS011;146;53.448;10.228;2023-03-01T08:59:34;6.80;;;6.13;;
317;SDS011;146;53.448;10.228;2023-03-01T09:02:10;6.43;;;5.80;;
317;SDS011;146;53.448;10.228;2023-03-01T09:04:43;8.87;;;6.87;;
317;SDS011;146;53.448;10.228;2023-03-01T09:07:10;8.60;;;6.30;;
317;SDS011;146;53.448;10.228;2023-03-01T09:09:40;7.63;;;7.03;;
317;SDS011;146;53.448;10.228;2023-03-01T09:12:09;8.00;;;7.20;;
317;SDS011;146;53.448;10.228;2023-03-01T09:14:36;6.90;;;6.20;;
317;SDS011;146;53.448;10.228;2023-03-01T09:17:03;9.87;;;6.33;;
317;SDS011;146;53.448;10.228;2023-03-01T09:19:30;8.17;;;6.43;;
317;SDS011;146;53.448;10.228;2023-03-01T09:21:58;7.93;;;6.87;;
317;SDS011;146;53.448;10.228;2023-03-01T09:24:25;8.70;;;7.80;;
317;SDS011;146;53.448;10.228;2023-03-01T09:26:53;8.60;;;7.60;;
317;SDS011;146;53.448;10.228;2023-03-01T09:29:20;8.30;;;7.40;;
317;SDS011;146;53.448;10.228;2023-03-01T09:31:48;9.77;;;8.87;;
317;SDS011;146;53.448;10.228;2023-03-01T09:34:20;10.77;;;8.90;;
317;SDS011;146;53.448;10.228;2023-03-01T09:36:48;9.90;;;8.93;;
317;SDS011;146;53.448;10.228;2023-03-01T09:39:16;9.00;;;8.10;;
317;SDS011;146;53.448;10.228;2023-03-01T09:41:46;9.60;;;7.63;;
317;SDS011;146;53.448;10.228;2023-03-01T09:44:20;9.23;;;8.30;;
317;SDS011;146;53.448;10.228;2023-03-01T09:46:56;9.40;;;8.50;;
317;SDS011;146;53.448;10.228;2023-03-01T09:49:27;10.23;;;9.10;;
317;SDS011;146;53.448;10.228;2023-03-01T09:51:57;8.93;;;7.90;;
317;SDS011;146;53.448;10.228;2023-03-01T09:54:31;10.10;;;9.03;;
317;SDS011;146;53.448;10.228;2023-03-01T09:57:11;8.67;;;7.87;;
317;SDS011;146;53.448;10.228;2023-03-01T10:02:39;9.87;;;8.90;;
317;SDS011;146;53.448;10.228;2023-03-01T10:05:13;11.00;;;9.90;;
317;SDS011;146;53.448;10.228;2023-03-01T10:08:21;10.03;;;9.13;;
317;SDS011;146;53.448;10.228;2023-03-01T10:10:55;10.67;;;9.57;;
317;SDS011;146;53.448;10.228;2023-03-01T10:13:24;11.10;;;10.00;;
317;SDS011;146;53.448;10.228;2023-03-01T10:15:56;11.23;;;10.20;;
317;SDS011;146;53.448;10.228;2023-03-01T10:18:31;13.00;;;9.13;;
317;SDS011;146;53.448;10.228;2023-03-01T10:21:11;10.17;;;9.27;;
317;SDS011;146;53.448;10.228;2023-03-01T10:23:42;13.50;;;9.43;;
317;SDS011;146;53.448;10.228;2023-03-01T10:29:04;11.17;;;9.53;;
317;SDS011;146;53.448;10.228;2023-03-01T10:31:36;13.17;;;10.77;;
317;SDS011;146;53.448;10.228;2023-03-01T10:34:13;15.57;;;10.70;;
317;SDS011;146;53.448;10.228;2023-03-01T10:36:42;12.10;;;10.73;;
317;SDS011;146;53.448;10.228;2023-03-01T10:39:14;17.37;;;9.77;;
317;SDS011;146;53.448;10.228;2023-03-01T10:41:54;11.57;;;10.47;;
317;SDS011;146;53.448;10.228;2023-03-01T10:44:36;13.43;;;9.97;;
317;SDS011;146;53.448;10.228;2023-03-01T10:47:05;11.30;;;9.67;;
317;SDS011;146;53.448;10.228;2023-03-01T10:49:42;14.33;;;10.00;;
317;SDS011;146;53.448;10.228;2023-03-01T10:52:20;10.00;;;9.00;;
317;SDS011;146;53.448;10.228;2023-03-01T10:54:51;11.83;;;10.63;;
317;SDS011;146;53.448;10.228;2023-03-01T10:57:27;13.20;;;11.10;;
317;SDS011;146;53.448;10.228;2023-03-01T11:00:11;11.53;;;10.33;;
317;SDS011;146;53.448;10.228;2023-03-01T11:05:51;11.00;;;9.90;;
317;SDS011;146;53.448;10.228;2023-03-01T11:08:31;10.43;;;9.30;;
317;SDS011;146;53.448;10.228;2023-03-01T11:13:59;9.07;;;8.20;;
317;SDS011;146;53.448;10.228;2023-03-01T11:16:32;9.10;;;8.30;;
317;SDS011;146;53.448;10.228;2023-03-01T11:19:20;10.03;;;8.70;;
317;SDS011;146;53.448;10.228;2023-03-01T11:21:55;9.43;;;8.47;;
317;SDS011;146;53.448;10.228;2023-03-01T11:24:30;12.67;;;9.37;;
317;SDS011;146;53.448;10.228;2023-03-01T11:27:02;10.00;;;9.00;;
317;SDS011;146;53.448;10.228;2023-03-01T11:29:39;10.20;;;9.17;;
317;SDS011;146;53.448;10.228;2023-03-01T11:32:11;10.13;;;8.90;;
317;SDS011;146;53.448;10.228;2023-03-01T11:34:42;10.30;;;9.10;;
317;SDS011;146;53.448;10.228;2023-03-01T11:37:31;10.77;;;9.67;;
317;SDS011;146;53.448;10.228;2023-03-01T11:40:11;12.73;;;11.07;;
317;SDS011;146;53.448;10.228;2023-03-01T11:42:53;11.27;;;9.87;;
317;SDS011;146;53.448;10.228;2023-03-01T11:45:32;11.73;;;10.53;;
317;SDS011;146;53.448;10.228;2023-03-01T11:48:21;15.33;;;10.83;;
317;SDS011;146;53.448;10.228;2023-03-01T11:51:13;11.43;;;10.23;;
317;SDS011;146;53.448;10.228;2023-03-01T11:53:51;10.00;;;9.00;;
317;SDS011;146;53.448;10.228;2023-03-01T11:56:28;10.63;;;9.23;;
317;SDS011;146;53.448;10.228;2023-03-01T12:08:17;11.23;;;9.17;;
317;SDS011;146;53.448;10.228;2023-03-01T12:10:51;10.93;;;9.83;;
317;SDS011;146;53.448;10.228;2023-03-01T12:17:11;9.87;;;8.47;;
317;SDS011;146;53.448;10.228;2023-03-01T12:25:43;10.03;;;9.10;;
317;SDS011;146;53.448;10.228;2023-03-01T12:34:26;9.37;;;8.47;;
317;SDS011;146;53.448;10.228;2023-03-01T12:37:17;9.10;;;8.10;;
317;SDS011;146;53.448;10.228;2023-03-01T12:39:56;10.10;;;8.90;;
317;SDS011;146;53.448;10.228;2023-03-01T12:42:44;11.30;;;9.47;;
317;SDS011;146;53.448;10.228;2023-03-01T12:45:26;10.13;;;9.23;;
317;SDS011;146;53.448;10.228;2023-03-01T12:48:09;8.37;;;7.53;;
317;SDS011;146;53.448;10.228;2023-03-01T12:50:52;9.77;;;8.77;;
317;SDS011;146;53.448;10.228;2023-03-01T12:53:23;10.53;;;9.10;;
317;SDS011;146;53.448;10.228;2023-03-01T12:55:52;10.90;;;9.00;;
317;SDS011;146;53.448;10.228;2023-03-01T12:58:24;9.40;;;8.37;;
317;SDS011;146;53.448;10.228;2023-03-01T13:01:08;10.90;;;8.97;;
317;SDS011;146;53.448;10.228;2023-03-01T13:03:51;10.90;;;8.60;;
317;SDS011;146;53.448;10.228;2023-03-01T13:06:38;9.47;;;8.50;;
317;SDS011;146;53.448;10.228;2023-03-01T13:09:22;9.10;;;8.20;;
317;SDS011;146;53.448;10.228;2023-03-01T13:11:53;12.67;;;9.60;;
317;SDS011;146;53.448;10.228;2023-03-01T13:14:36;9.23;;;8.33;;
317;SDS011;146;53.448;10.228;2023-03-01T13:19:59;9.10;;;8.20;;
317;SDS011;146;53.448;10.228;2023-03-01T13:22:29;8.60;;;7.90;;
317;SDS011;146;53.448;10.228;2023-03-01T13:25:11;9.93;;;8.57;;
317;SDS011;146;53.448;10.228;2023-03-01T13:27:40;9.30;;;8.40;;
317;SDS011;146;53.448;10.228;2023-03-01T13:36:06;9.30;;;8.37;;
317;SDS011;146;53.448;10.228;2023-03-01T13:38:36;11.27;;;8.90;;
317;SDS011;146;53.448;10.228;2023-03-01T13:41:05;9.50;;;8.47;;
317;SDS011;146;53.448;10.228;2023-03-01T13:43:33;10.30;;;9.30;;
317;SDS011;146;53.448;10.228;2023-03-01T13:46:08;9.57;;;8.60;;
317;SDS011;146;53.448;10.228;2023-03-01T13:48:38;10.37;;;8.00;;
317;SDS011;146;53.448;10.228;2023-03-01T13:51:06;9.00;;;7.40;;
317;SDS011;146;53.448;10.228;2023-03-01T13:53:39;10.20;;;7.70;;
317;SDS011;146;53.448;10.228;2023-03-01T13:56:11;6.83;;;6.23;;
317;SDS011;146;53.448;10.228;2023-03-01T13:58:44;6.83;;;6.13;;
317;SDS011;146;53.448;10.228;2023-03-01T14:01:20;7.83;;;6.67;;
317;SDS011;146;53.448;10.228;2023-03-01T14:03:54;9.03;;;6.27;;
317;SDS011;146;53.448;10.228;2023-03-01T14:06:22;7.23;;;6.53;;
317;SDS011;146;53.448;10.228;2023-03-01T14:09:02;6.53;;;5.93;;
317;SDS011;146;53.448;10.228;2023-03-01T14:11:41;8.57;;;6.33;;
317;SDS011;146;53.448;10.228;2023-03-01T14:14:40;7.47;;;6.03;;
317;SDS011;146;53.448;10.228;2023-03-01T14:17:24;7.63;;;6.80;;
317;SDS011;146;53.448;10.228;2023-03-01T14:20:08;9.83;;;6.13;;
317;SDS011;146;53.448;10.228;2023-03-01T14:22:38;8.07;;;7.27;;
317;SDS011;146;53.448;10.228;2023-03-01T14:28:03;8.27;;;6.23;;
317;SDS011;146;53.448;10.228;2023-03-01T14:30:41;7.77;;;6.67;;
317;SDS011;146;53.448;10.228;2023-03-01T14:33:20;7.40;;;6.70;;
317;SDS011;146;53.448;10.228;2023-03-01T14:35:53;7.00;;;5.60;;
317;SDS011;146;53.448;10.228;2023-03-01T14:38:28;7.07;;;6.40;;
317;SDS011;146;53.448;10.228;2023-03-01T14:41:01;6.73;;;6.10;;
317;SDS011;146;53.448;10.228;2023-03-01T14:43:31;7.07;;;6.10;;
317;SDS011;146;53.448;10.228;2023-03-01T14:45:58;7.23;;;6.10;;
317;SDS011;146;53.448;10.228;2023-03-01T14:48:26;6.67;;;5.83;;
317;SDS011;146;53.448;10.228;2023-03-01T14:50:54;6.50;;;5.90;;
317;SDS011;146;53.448;10.228;2023-03-01T14:53:21;7.53;;;6.33;;
317;SDS011;146;53.448;10.228;2023-03-01T14:56:01;6.60;;;6.00;;
317;SDS011;146;53.448;10.228;2023-03-01T14:58:28;5.67;;;5.17;;
317;SDS011;146;53.448;10.228;2023-03-01T15:00:59;6.20;;;5.60;;
317;SDS011;146;53.448;10.228;2023-03-01T15:03:30;6.70;;;6.00;;
317;SDS011;146;53.448;10.228;2023-03-01T15:06:00;6.30;;;4.90;;
317;SDS011;146;53.448;10.228;2023-03-01T15:08:28;5.93;;;5.40;;
317;SDS011;146;53.448;10.228;2023-03-01T15:11:03;7.47;;;4.97;;
317;SDS011;146;53.448;10.228;2023-03-01T15:13:32;7.43;;;6.00;;
317;SDS011;146;53.448;10.228;2023-03-01T15:16:05;5.67;;;5.10;;
317;SDS011;146;53.448;10.228;2023-03-01T15:18:33;7.73;;;6.00;;
317;SDS011;146;53.448;10.228;2023-03-01T15:21:05;7.77;;;6.23;;
317;SDS011;146;53.448;10.228;2023-03-01T15:23:33;8.93;;;7.07;;
317;SDS011;146;53.448;10.228;2023-03-01T15:26:02;10.40;;;7.50;;
317;SDS011;146;53.448;10.228;2023-03-01T15:28:33;8.03;;;7.43;;
317;SDS011;146;53.448;10.228;2023-03-01T15:31:06;8.03;;;7.00;;
317;SDS011;146;53.448;10.228;2023-03-01T15:33:47;9.63;;;6.37;;
317;SDS011;146;53.448;10.228;2023-03-01T15:36:31;5.90;;;4.90;;
317;SDS011;146;53.448;10.228;2023-03-01T15:39:05;5.70;;;5.20;;
317;SDS011;146;53.448;10.228;2023-03-01T15:41:47;7.23;;;5.50;;
317;SDS011;146;53.448;10.228;2023-03-01T15:44:15;6.00;;;4.13;;
317;SDS011;146;53.448;10.228;2023-03-01T15:46:53;5.67;;;5.10;;
317;SDS011;146;53.448;10.228;2023-03-01T15:49:24;5.33;;;4.80;;
317;SDS011;146;53.448;10.228;2023-03-01T15:52:05;4.93;;;4.40;;
317;SDS011;146;53.448;10.228;2023-03-01T15:54:36;5.90;;;4.17;;
317;SDS011;146;53.448;10.228;2023-03-01T15:57:07;5.17;;;4.60;;
317;SDS011;146;53.448;10.228;2023-03-01T15:59:40;4.60;;;3.90;;
317;SDS011;146;53.448;10.228;2023-03-01T16:02:10;5.40;;;4.90;;
317;SDS011;146;53.448;10.228;2023-03-01T16:04:38;4.87;;;3.93;;
317;SDS011;146;53.448;10.228;2023-03-01T16:07:05;4.67;;;4.17;;
317;SDS011;146;53.448;10.228;2023-03-01T16:09:38;5.63;;;4.10;;
317;SDS011;146;53.448;10.228;2023-03-01T16:12:05;3.90;;;3.60;;
317;SDS011;146;53.448;10.228;2023-03-01T16:14:38;4.00;;;3.40;;
317;SDS011;146;53.448;10.228;2023-03-01T16:17:05;4.57;;;4.03;;
317;SDS011;146;53.448;10.228;2023-03-01T16:19:38;3.63;;;3.33;;
317;SDS011;146;53.448;10.228;2023-03-01T16:22:06;4.47;;;4.07;;
317;SDS011;146;53.448;10.228;2023-03-01T16:24:34;4.53;;;4.20;;
317;SDS011;146;53.448;10.228;2023-03-01T16:27:05;6.80;;;6.20;;
317;SDS011;146;53.448;10.228;2023-03-01T16:29:32;6.90;;;6.17;;
317;SDS011;146;53.448;10.228;2023-03-01T16:31:59;5.63;;;5.03;;
317;SDS011;146;53.448;10.228;2023-03-01T16:34:27;6.10;;;5.30;;
317;SDS011;146;53.448;10.228;2023-03-01T16:36:57;8.20;;;6.13;;
317;SDS011;146;53.448;10.228;2023-03-01T16:39:24;5.50;;;4.70;;
317;SDS011;146;53.448;10.228;2023-03-01T16:41:51;5.93;;;5.33;;
317;SDS011;146;53.448;10.228;2023-03-01T16:44:17;5.90;;;5.40;;
317;SDS011;146;53.448;10.228;2023-03-01T16:46:44;6.03;;;5.07;;